Wilson, Louisiana
Current Conditions -  °F | °C
As of 5:15 PM on Monday 22 Dec 2014 (Local Time) from KHZR Reporting Station
Broken Clouds Broken Clouds  
Wind Chill: 71°   Ceiling: 3900
Heat Index: 71°   Visibility: 10mi
Dew Point: 62°   Wind: 9mph
Humidity: 73%   Direction: 190°S
Pressure: 29.66"   Gusts: 17mph
Location:  30.92°N, 91.12°W
Report Text: KHZR 222315Z AUTO 19008G15KT 10SM SCT033 BKN039 22/17 A2966 RMK AO2 T02180167
Loading
Personal Weather Stations






























Interactive Weather Map New forecast layout! Learn more

10-Day Weather Forecast

Advertisements
Track Severe Weather on mobile